sensor_id;sensor_type;location;lat;lon;timestamp;P1;durP1;ratioP1;P2;durP2;ratioP2
50555;SDS011;36508;52.512;13.450;2022-09-17T00:01:00;5.57;;;3.87;;
50555;SDS011;36508;52.512;13.450;2022-09-17T00:03:27;6.00;;;4.10;;
50555;SDS011;36508;52.512;13.450;2022-09-17T00:06:03;4.67;;;3.27;;
50555;SDS011;36508;52.512;13.450;2022-09-17T00:08:33;5.83;;;3.50;;
50555;SDS011;36508;52.512;13.450;2022-09-17T00:13:39;8.40;;;3.73;;
50555;SDS011;36508;52.512;13.450;2022-09-17T00:16:05;6.53;;;3.40;;
50555;SDS011;36508;52.512;13.450;2022-09-17T00:18:31;5.17;;;3.77;;
50555;SDS011;36508;52.512;13.450;2022-09-17T00:21:00;7.03;;;5.07;;
50555;SDS011;36508;52.512;13.450;2022-09-17T00:23:27;10.37;;;3.63;;
50555;SDS011;36508;52.512;13.450;2022-09-17T00:25:52;5.00;;;2.97;;
50555;SDS011;36508;52.512;13.450;2022-09-17T00:28:18;7.37;;;5.50;;
50555;SDS011;36508;52.512;13.450;2022-09-17T00:30:44;3.83;;;2.87;;
50555;SDS011;36508;52.512;13.450;2022-09-17T00:33:11;5.00;;;4.00;;
50555;SDS011;36508;52.512;13.450;2022-09-17T00:35:38;7.23;;;3.77;;
50555;SDS011;36508;52.512;13.450;2022-09-17T00:38:03;6.90;;;4.40;;
50555;SDS011;36508;52.512;13.450;2022-09-17T00:40:30;5.93;;;3.93;;
50555;SDS011;36508;52.512;13.450;2022-09-17T00:42:55;4.80;;;3.40;;
50555;SDS011;36508;52.512;13.450;2022-09-17T00:45:21;16.13;;;6.50;;
50555;SDS011;36508;52.512;13.450;2022-09-17T00:47:52;9.93;;;3.60;;
50555;SDS011;36508;52.512;13.450;2022-09-17T00:50:40;3.30;;;3.00;;
50555;SDS011;36508;52.512;13.450;2022-09-17T00:53:13;6.70;;;4.53;;
50555;SDS011;36508;52.512;13.450;2022-09-17T00:55:48;6.07;;;3.80;;
50555;SDS011;36508;52.512;13.450;2022-09-17T00:58:47;9.33;;;4.47;;
50555;SDS011;36508;52.512;13.450;2022-09-17T01:01:14;8.73;;;3.53;;
50555;SDS011;36508;52.512;13.450;2022-09-17T01:03:40;7.23;;;3.73;;
50555;SDS011;36508;52.512;13.450;2022-09-17T01:09:20;3.53;;;3.23;;
50555;SDS011;36508;52.512;13.450;2022-09-17T01:17:12;4.13;;;3.30;;
50555;SDS011;36508;52.512;13.450;2022-09-17T01:25:20;6.47;;;4.17;;
50555;SDS011;36508;52.512;13.450;2022-09-17T01:38:42;9.20;;;3.50;;
50555;SDS011;36508;52.512;13.450;2022-09-17T01:43:56;4.33;;;2.80;;
50555;SDS011;36508;52.512;13.450;2022-09-17T01:46:32;7.33;;;4.20;;
50555;SDS011;36508;52.512;13.450;2022-09-17T01:49:04;5.90;;;2.43;;
50555;SDS011;36508;52.512;13.450;2022-09-17T01:51:34;9.10;;;3.73;;
50555;SDS011;36508;52.512;13.450;2022-09-17T01:54:10;7.00;;;3.13;;
50555;SDS011;36508;52.512;13.450;2022-09-17T01:57:42;11.93;;;3.57;;
50555;SDS011;36508;52.512;13.450;2022-09-17T02:00:00;6.47;;;3.27;;
50555;SDS011;36508;52.512;13.450;2022-09-17T02:02:40;9.13;;;5.50;;
50555;SDS011;36508;52.512;13.450;2022-09-17T02:05:15;10.33;;;2.87;;
50555;SDS011;36508;52.512;13.450;2022-09-17T02:07:54;5.37;;;3.90;;
50555;SDS011;36508;52.512;13.450;2022-09-17T02:10:30;5.00;;;3.80;;
50555;SDS011;36508;52.512;13.450;2022-09-17T02:13:00;6.73;;;3.57;;
50555;SDS011;36508;52.512;13.450;2022-09-17T02:18:12;7.40;;;4.80;;
50555;SDS011;36508;52.512;13.450;2022-09-17T02:20:44;11.20;;;6.10;;
50555;SDS011;36508;52.512;13.450;2022-09-17T02:23:20;5.40;;;4.30;;
50555;SDS011;36508;52.512;13.450;2022-09-17T02:25:51;14.20;;;5.13;;
50555;SDS011;36508;52.512;13.450;2022-09-17T02:28:26;9.27;;;5.27;;
50555;SDS011;36508;52.512;13.450;2022-09-17T02:31:04;9.40;;;4.50;;
50555;SDS011;36508;52.512;13.450;2022-09-17T02:33:30;7.67;;;3.77;;
50555;SDS011;36508;52.512;13.450;2022-09-17T02:35:59;10.97;;;4.20;;
50555;SDS011;36508;52.512;13.450;2022-09-17T02:38:27;4.50;;;3.33;;
50555;SDS011;36508;52.512;13.450;2022-09-17T02:40:57;6.07;;;4.33;;
50555;SDS011;36508;52.512;13.450;2022-09-17T02:43:40;3.93;;;3.50;;
50555;SDS011;36508;52.512;13.450;2022-09-17T02:46:21;4.87;;;4.23;;
50555;SDS011;36508;52.512;13.450;2022-09-17T02:57:08;7.87;;;3.97;;
50555;SDS011;36508;52.512;13.450;2022-09-17T03:00:02;5.57;;;4.50;;
50555;SDS011;36508;52.512;13.450;2022-09-17T03:02:41;5.43;;;4.23;;
50555;SDS011;36508;52.512;13.450;2022-09-17T03:05:07;11.37;;;6.00;;
50555;SDS011;36508;52.512;13.450;2022-09-17T03:07:36;8.57;;;4.70;;
50555;SDS011;36508;52.512;13.450;2022-09-17T03:10:02;9.07;;;4.57;;
50555;SDS011;36508;52.512;13.450;2022-09-17T03:12:29;6.93;;;4.70;;
50555;SDS011;36508;52.512;13.450;2022-09-17T03:14:55;4.73;;;4.10;;
50555;SDS011;36508;52.512;13.450;2022-09-17T03:17:21;6.03;;;4.43;;
50555;SDS011;36508;52.512;13.450;2022-09-17T03:19:46;7.93;;;4.90;;
50555;SDS011;36508;52.512;13.450;2022-09-17T03:22:12;4.37;;;3.97;;
50555;SDS011;36508;52.512;13.450;2022-09-17T03:24:37;9.43;;;5.30;;
50555;SDS011;36508;52.512;13.450;2022-09-17T03:27:03;9.00;;;4.23;;
50555;SDS011;36508;52.512;13.450;2022-09-17T03:29:29;13.50;;;5.17;;
50555;SDS011;36508;52.512;13.450;2022-09-17T03:31:54;9.23;;;5.50;;
50555;SDS011;36508;52.512;13.450;2022-09-17T03:34:20;8.27;;;3.53;;
50555;SDS011;36508;52.512;13.450;2022-09-17T03:49:42;10.50;;;4.23;;
50555;SDS011;36508;52.512;13.450;2022-09-17T03:52:08;7.33;;;2.43;;
50555;SDS011;36508;52.512;13.450;2022-09-17T03:54:33;9.40;;;4.43;;
50555;SDS011;36508;52.512;13.450;2022-09-17T03:56:59;5.33;;;3.60;;
50555;SDS011;36508;52.512;13.450;2022-09-17T03:59:24;2.67;;;2.43;;
50555;SDS011;36508;52.512;13.450;2022-09-17T04:01:50;5.90;;;3.30;;
50555;SDS011;36508;52.512;13.450;2022-09-17T04:04:15;4.87;;;3.40;;
50555;SDS011;36508;52.512;13.450;2022-09-17T04:06:41;9.30;;;5.40;;
50555;SDS011;36508;52.512;13.450;2022-09-17T04:09:06;4.50;;;2.47;;
50555;SDS011;36508;52.512;13.450;2022-09-17T04:11:32;4.93;;;4.30;;
50555;SDS011;36508;52.512;13.450;2022-09-17T04:13:58;12.10;;;4.70;;
50555;SDS011;36508;52.512;13.450;2022-09-17T04:16:24;11.37;;;4.43;;
50555;SDS011;36508;52.512;13.450;2022-09-17T04:18:49;12.93;;;3.27;;
50555;SDS011;36508;52.512;13.450;2022-09-17T04:21:15;10.00;;;3.97;;
50555;SDS011;36508;52.512;13.450;2022-09-17T04:23:40;6.63;;;2.73;;
50555;SDS011;36508;52.512;13.450;2022-09-17T04:26:05;6.60;;;4.13;;
50555;SDS011;36508;52.512;13.450;2022-09-17T04:28:31;7.50;;;3.70;;
50555;SDS011;36508;52.512;13.450;2022-09-17T04:30:56;5.17;;;2.87;;
50555;SDS011;36508;52.512;13.450;2022-09-17T04:33:22;7.30;;;3.00;;
50555;SDS011;36508;52.512;13.450;2022-09-17T04:35:47;4.37;;;2.93;;
50555;SDS011;36508;52.512;13.450;2022-09-17T04:38:13;4.10;;;2.77;;
50555;SDS011;36508;52.512;13.450;2022-09-17T04:40:42;7.13;;;2.80;;
50555;SDS011;36508;52.512;13.450;2022-09-17T04:43:08;6.40;;;3.03;;
50555;SDS011;36508;52.512;13.450;2022-09-17T04:45:35;7.90;;;5.40;;
50555;SDS011;36508;52.512;13.450;2022-09-17T04:48:01;5.57;;;2.90;;
50555;SDS011;36508;52.512;13.450;2022-09-17T04:50:26;7.00;;;3.03;;
50555;SDS011;36508;52.512;13.450;2022-09-17T04:52:52;8.27;;;3.67;;
50555;SDS011;36508;52.512;13.450;2022-09-17T04:55:20;8.33;;;2.63;;
50555;SDS011;36508;52.512;13.450;2022-09-17T04:57:46;12.50;;;4.33;;
50555;SDS011;36508;52.512;13.450;2022-09-17T05:00:13;10.70;;;2.53;;
50555;SDS011;36508;52.512;13.450;2022-09-17T05:02:40;6.10;;;3.13;;
50555;SDS011;36508;52.512;13.450;2022-09-17T05:05:07;10.47;;;3.43;;
50555;SDS011;36508;52.512;13.450;2022-09-17T05:07:33;12.60;;;5.77;;
50555;SDS011;36508;52.512;13.450;2022-09-17T05:09:58;7.90;;;2.70;;
50555;SDS011;36508;52.512;13.450;2022-09-17T05:12:23;4.00;;;3.53;;
50555;SDS011;36508;52.512;13.450;2022-09-17T05:14:49;6.57;;;2.90;;
50555;SDS011;36508;52.512;13.450;2022-09-17T05:17:14;14.03;;;4.07;;
50555;SDS011;36508;52.512;13.450;2022-09-17T05:19:40;4.23;;;3.07;;
50555;SDS011;36508;52.512;13.450;2022-09-17T05:22:05;3.20;;;2.93;;
50555;SDS011;36508;52.512;13.450;2022-09-17T05:24:31;9.00;;;4.00;;
50555;SDS011;36508;52.512;13.450;2022-09-17T05:26:57;8.40;;;3.13;;
50555;SDS011;36508;52.512;13.450;2022-09-17T05:29:23;8.27;;;3.70;;
50555;SDS011;36508;52.512;13.450;2022-09-17T05:31:51;3.67;;;2.23;;
50555;SDS011;36508;52.512;13.450;2022-09-17T05:34:16;10.10;;;3.20;;
50555;SDS011;36508;52.512;13.450;2022-09-17T05:36:42;3.20;;;2.70;;
50555;SDS011;36508;52.512;13.450;2022-09-17T05:39:07;5.73;;;2.90;;
50555;SDS011;36508;52.512;13.450;2022-09-17T05:41:33;10.20;;;3.63;;
50555;SDS011;36508;52.512;13.450;2022-09-17T05:44:01;4.10;;;2.80;;
50555;SDS011;36508;52.512;13.450;2022-09-17T05:46:26;9.90;;;3.80;;
50555;SDS011;36508;52.512;13.450;2022-09-17T05:48:54;8.53;;;3.10;;
50555;SDS011;36508;52.512;13.450;2022-09-17T05:51:20;11.30;;;3.00;;
50555;SDS011;36508;52.512;13.450;2022-09-17T05:53:46;6.47;;;3.73;;
50555;SDS011;36508;52.512;13.450;2022-09-17T05:56:11;6.83;;;3.33;;
50555;SDS011;36508;52.512;13.450;2022-09-17T05:58:37;5.03;;;2.77;;
50555;SDS011;36508;52.512;13.450;2022-09-17T06:01:02;5.83;;;3.77;;
50555;SDS011;36508;52.512;13.450;2022-09-17T06:03:28;8.07;;;2.97;;
50555;SDS011;36508;52.512;13.450;2022-09-17T06:05:57;18.33;;;4.20;;
50555;SDS011;36508;52.512;13.450;2022-09-17T06:08:24;9.80;;;2.90;;
50555;SDS011;36508;52.512;13.450;2022-09-17T06:10:51;5.80;;;3.00;;
50555;SDS011;36508;52.512;13.450;2022-09-17T06:13:17;7.47;;;4.43;;
50555;SDS011;36508;52.512;13.450;2022-09-17T06:15:48;5.97;;;3.23;;
50555;SDS011;36508;52.512;13.450;2022-09-17T06:18:14;9.50;;;4.03;;
50555;SDS011;36508;52.512;13.450;2022-09-17T06:20:40;5.30;;;2.93;;
50555;SDS011;36508;52.512;13.450;2022-09-17T06:23:05;6.67;;;4.10;;
50555;SDS011;36508;52.512;13.450;2022-09-17T06:25:31;7.40;;;3.70;;
50555;SDS011;36508;52.512;13.450;2022-09-17T06:27:57;10.27;;;4.37;;
50555;SDS011;36508;52.512;13.450;2022-09-17T06:30:22;7.73;;;5.10;;
50555;SDS011;36508;52.512;13.450;2022-09-17T06:32:48;13.63;;;5.97;;
50555;SDS011;36508;52.512;13.450;2022-09-17T06:35:14;13.57;;;4.10;;
50555;SDS011;36508;52.512;13.450;2022-09-17T06:37:39;9.90;;;5.40;;
50555;SDS011;36508;52.512;13.450;2022-09-17T06:40:05;12.37;;;5.47;;
50555;SDS011;36508;52.512;13.450;2022-09-17T06:42:32;9.70;;;3.00;;
50555;SDS011;36508;52.512;13.450;2022-09-17T06:44:57;13.30;;;5.17;;
50555;SDS011;36508;52.512;13.450;2022-09-17T06:47:23;19.20;;;5.00;;
50555;SDS011;36508;52.512;13.450;2022-09-17T06:49:49;13.30;;;4.40;;
50555;SDS011;36508;52.512;13.450;2022-09-17T06:52:15;11.53;;;5.40;;
50555;SDS011;36508;52.512;13.450;2022-09-17T06:54:41;13.87;;;4.03;;
50555;SDS011;36508;52.512;13.450;2022-09-17T06:57:06;11.70;;;4.70;;
50555;SDS011;36508;52.512;13.450;2022-09-17T06:59:35;6.00;;;4.07;;
50555;SDS011;36508;52.512;13.450;2022-09-17T07:02:00;13.43;;;4.57;;
50555;SDS011;36508;52.512;13.450;2022-09-17T07:04:25;9.53;;;4.60;;
50555;SDS011;36508;52.512;13.450;2022-09-17T07:06:51;6.83;;;4.37;;
50555;SDS011;36508;52.512;13.450;2022-09-17T07:09:16;11.27;;;4.53;;
50555;SDS011;36508;52.512;13.450;2022-09-17T07:11:42;15.50;;;5.57;;
50555;SDS011;36508;52.512;13.450;2022-09-17T07:14:08;14.27;;;3.30;;
50555;SDS011;36508;52.512;13.450;2022-09-17T07:16:33;9.87;;;3.77;;
50555;SDS011;36508;52.512;13.450;2022-09-17T07:19:01;18.63;;;5.30;;
50555;SDS011;36508;52.512;13.450;2022-09-17T07:21:27;10.83;;;4.70;;
50555;SDS011;36508;52.512;13.450;2022-09-17T07:23:53;14.93;;;6.03;;
50555;SDS011;36508;52.512;13.450;2022-09-17T07:26:18;10.40;;;4.00;;
50555;SDS011;36508;52.512;13.450;2022-09-17T07:28:44;15.47;;;5.33;;
50555;SDS011;36508;52.512;13.450;2022-09-17T07:31:10;13.10;;;4.13;;
50555;SDS011;36508;52.512;13.450;2022-09-17T07:33:36;10.53;;;3.73;;
50555;SDS011;36508;52.512;13.450;2022-09-17T07:36:06;6.70;;;2.30;;
50555;SDS011;36508;52.512;13.450;2022-09-17T07:38:34;7.43;;;3.90;;
50555;SDS011;36508;52.512;13.450;2022-09-17T07:41:00;15.73;;;4.60;;
50555;SDS011;36508;52.512;13.450;2022-09-17T07:43:28;8.27;;;3.93;;
50555;SDS011;36508;52.512;13.450;2022-09-17T07:45:57;10.80;;;3.33;;
50555;SDS011;36508;52.512;13.450;2022-09-17T07:48:23;11.20;;;3.40;;
50555;SDS011;36508;52.512;13.450;2022-09-17T07:50:50;9.53;;;3.50;;
50555;SDS011;36508;52.512;13.450;2022-09-17T07:53:16;9.53;;;3.00;;
50555;SDS011;36508;52.512;13.450;2022-09-17T07:55:42;8.80;;;3.03;;
50555;SDS011;36508;52.512;13.450;2022-09-17T07:58:14;11.83;;;4.03;;
50555;SDS011;36508;52.512;13.450;2022-09-17T08:00:40;10.73;;;3.00;;
50555;SDS011;36508;52.512;13.450;2022-09-17T08:03:06;8.27;;;3.90;;
50555;SDS011;36508;52.512;13.450;2022-09-17T08:05:31;7.43;;;2.97;;
50555;SDS011;36508;52.512;13.450;2022-09-17T08:07:57;13.20;;;3.70;;
50555;SDS011;36508;52.512;13.450;2022-09-17T08:10:23;12.53;;;3.20;;
50555;SDS011;36508;52.512;13.450;2022-09-17T08:12:49;10.37;;;3.50;;
50555;SDS011;36508;52.512;13.450;2022-09-17T08:15:18;12.73;;;3.47;;
50555;SDS011;36508;52.512;13.450;2022-09-17T08:17:46;5.97;;;2.23;;
50555;SDS011;36508;52.512;13.450;2022-09-17T08:20:13;17.43;;;3.70;;
50555;SDS011;36508;52.512;13.450;2022-09-17T08:22:39;5.50;;;2.17;;
50555;SDS011;36508;52.512;13.450;2022-09-17T08:25:05;11.40;;;3.60;;
50555;SDS011;36508;52.512;13.450;2022-09-17T08:27:32;9.40;;;3.10;;
50555;SDS011;36508;52.512;13.450;2022-09-17T08:29:58;6.70;;;3.03;;
50555;SDS011;36508;52.512;13.450;2022-09-17T08:32:23;9.83;;;4.00;;
50555;SDS011;36508;52.512;13.450;2022-09-17T08:34:49;4.30;;;2.40;;
50555;SDS011;36508;52.512;13.450;2022-09-17T08:37:15;6.43;;;2.97;;
50555;SDS011;36508;52.512;13.450;2022-09-17T08:39:41;8.17;;;3.40;;
50555;SDS011;36508;52.512;13.450;2022-09-17T08:44:56;4.33;;;2.60;;
50555;SDS011;36508;52.512;13.450;2022-09-17T08:49:56;5.40;;;2.37;;
50555;SDS011;36508;52.512;13.450;2022-09-17T08:52:28;8.00;;;2.47;;
50555;SDS011;36508;52.512;13.450;2022-09-17T08:57:47;7.53;;;2.83;;
50555;SDS011;36508;52.512;13.450;2022-09-17T09:00:27;4.17;;;2.70;;
50555;SDS011;36508;52.512;13.450;2022-09-17T09:03:28;7.03;;;2.40;;
50555;SDS011;36508;52.512;13.450;2022-09-17T09:06:15;6.30;;;2.10;;
50555;SDS011;36508;52.512;13.450;2022-09-17T09:08:49;11.00;;;3.60;;
50555;SDS011;36508;52.512;13.450;2022-09-17T09:11:25;12.50;;;3.43;;
50555;SDS011;36508;52.512;13.450;2022-09-17T09:13:58;6.23;;;2.60;;
50555;SDS011;36508;52.512;13.450;2022-09-17T09:16:33;3.07;;;2.17;;
50555;SDS011;36508;52.512;13.450;2022-09-17T09:19:11;8.17;;;2.60;;
50555;SDS011;36508;52.512;13.450;2022-09-17T09:22:04;4.03;;;2.27;;
50555;SDS011;36508;52.512;13.450;2022-09-17T09:24:40;9.10;;;2.70;;
50555;SDS011;36508;52.512;13.450;2022-09-17T09:27:20;10.83;;;2.90;;
50555;SDS011;36508;52.512;13.450;2022-09-17T09:35:43;8.70;;;2.80;;
50555;SDS011;36508;52.512;13.450;2022-09-17T09:41:05;8.13;;;2.10;;
50555;SDS011;36508;52.512;13.450;2022-09-17T09:43:40;6.57;;;3.30;;
50555;SDS011;36508;52.512;13.450;2022-09-17T09:49:26;5.23;;;2.13;;
50555;SDS011;36508;52.512;13.450;2022-09-17T09:52:31;6.47;;;1.93;;
50555;SDS011;36508;52.512;13.450;2022-09-17T10:00:38;4.97;;;2.60;;
50555;SDS011;36508;52.512;13.450;2022-09-17T10:03:19;5.37;;;2.20;;
50555;SDS011;36508;52.512;13.450;2022-09-17T10:05:53;8.10;;;3.10;;
50555;SDS011;36508;52.512;13.450;2022-09-17T10:08:25;4.73;;;1.90;;
50555;SDS011;36508;52.512;13.450;2022-09-17T10:11:02;7.27;;;1.77;;
50555;SDS011;36508;52.512;13.450;2022-09-17T10:13:39;6.60;;;4.00;;
50555;SDS011;36508;52.512;13.450;2022-09-17T10:18:51;10.00;;;4.10;;
50555;SDS011;36508;52.512;13.450;2022-09-17T10:21:38;7.13;;;2.63;;
50555;SDS011;36508;52.512;13.450;2022-09-17T10:24:20;9.90;;;3.80;;
50555;SDS011;36508;52.512;13.450;2022-09-17T10:27:05;3.80;;;1.97;;
50555;SDS011;36508;52.512;13.450;2022-09-17T10:29:40;2.40;;;1.57;;
50555;SDS011;36508;52.512;13.450;2022-09-17T10:32:12;5.93;;;2.20;;
50555;SDS011;36508;52.512;13.450;2022-09-17T10:34:40;4.77;;;1.93;;
50555;SDS011;36508;52.512;13.450;2022-09-17T10:37:18;6.10;;;1.93;;
50555;SDS011;36508;52.512;13.450;2022-09-17T10:42:42;8.93;;;3.80;;
50555;SDS011;36508;52.512;13.450;2022-09-17T10:45:29;6.27;;;2.83;;
50555;SDS011;36508;52.512;13.450;2022-09-17T10:47:55;6.60;;;2.10;;
50555;SDS011;36508;52.512;13.450;2022-09-17T10:50:24;5.47;;;3.37;;
50555;SDS011;36508;52.512;13.450;2022-09-17T10:52:56;7.50;;;2.20;;
50555;SDS011;36508;52.512;13.450;2022-09-17T11:06:52;9.57;;;2.60;;
50555;SDS011;36508;52.512;13.450;2022-09-17T11:12:35;6.80;;;2.17;;
50555;SDS011;36508;52.512;13.450;2022-09-17T11:15:27;5.73;;;1.50;;
50555;SDS011;36508;52.512;13.450;2022-09-17T11:26:15;3.70;;;1.80;;
50555;SDS011;36508;52.512;13.450;2022-09-17T11:32:32;4.20;;;2.10;;
50555;SDS011;36508;52.512;13.450;2022-09-17T11:37:27;3.53;;;1.63;;
50555;SDS011;36508;52.512;13.450;2022-09-17T11:39:58;3.63;;;1.67;;
50555;SDS011;36508;52.512;13.450;2022-09-17T11:45:27;2.97;;;1.57;;
50555;SDS011;36508;52.512;13.450;2022-09-17T11:50:42;6.20;;;1.57;;
50555;SDS011;36508;52.512;13.450;2022-09-17T11:53:22;5.30;;;1.90;;
50555;SDS011;36508;52.512;13.450;2022-09-17T11:56:16;7.37;;;1.60;;
50555;SDS011;36508;52.512;13.450;2022-09-17T11:59:00;5.70;;;1.90;;
50555;SDS011;36508;52.512;13.450;2022-09-17T12:01:43;2.83;;;2.27;;
50555;SDS011;36508;52.512;13.450;2022-09-17T12:07:02;2.80;;;1.27;;
50555;SDS011;36508;52.512;13.450;2022-09-17T12:09:37;3.70;;;1.83;;
50555;SDS011;36508;52.512;13.450;2022-09-17T12:12:15;3.10;;;1.67;;
50555;SDS011;36508;52.512;13.450;2022-09-17T12:14:45;4.47;;;1.80;;
50555;SDS011;36508;52.512;13.450;2022-09-17T12:17:45;3.93;;;2.50;;
50555;SDS011;36508;52.512;13.450;2022-09-17T12:20:26;3.87;;;1.30;;
50555;SDS011;36508;52.512;13.450;2022-09-17T12:22:56;4.20;;;1.70;;
50555;SDS011;36508;52.512;13.450;2022-09-17T12:25:24;2.87;;;1.57;;
50555;SDS011;36508;52.512;13.450;2022-09-17T12:28:05;3.10;;;1.27;;
50555;SDS011;36508;52.512;13.450;2022-09-17T12:30:37;5.00;;;1.37;;
50555;SDS011;36508;52.512;13.450;2022-09-17T12:38:44;4.13;;;1.80;;
50555;SDS011;36508;52.512;13.450;2022-09-17T12:41:23;5.27;;;1.50;;
50555;SDS011;36508;52.512;13.450;2022-09-17T12:46:26;2.97;;;1.37;;
50555;SDS011;36508;52.512;13.450;2022-09-17T12:49:19;1.60;;;1.00;;
50555;SDS011;36508;52.512;13.450;2022-09-17T12:51:58;2.03;;;0.93;;
50555;SDS011;36508;52.512;13.450;2022-09-17T12:54:50;5.40;;;1.07;;
50555;SDS011;36508;52.512;13.450;2022-09-17T13:00:49;3.70;;;1.70;;
50555;SDS011;36508;52.512;13.450;2022-09-17T13:03:20;8.23;;;2.40;;
50555;SDS011;36508;52.512;13.450;2022-09-17T13:05:54;6.60;;;2.47;;
50555;SDS011;36508;52.512;13.450;2022-09-17T13:16:48;3.10;;;1.30;;
50555;SDS011;36508;52.512;13.450;2022-09-17T13:19:37;1.30;;;1.10;;
50555;SDS011;36508;52.512;13.450;2022-09-17T13:22:28;3.33;;;1.20;;
50555;SDS011;36508;52.512;13.450;2022-09-17T13:25:06;3.57;;;1.60;;
50555;SDS011;36508;52.512;13.450;2022-09-17T13:27:35;3.23;;;1.50;;
50555;SDS011;36508;52.512;13.450;2022-09-17T13:30:10;2.70;;;1.33;;
50555;SDS011;36508;52.512;13.450;2022-09-17T13:37:31;1.93;;;1.00;;
50555;SDS011;36508;52.512;13.450;2022-09-17T13:39:58;0.93;;;0.83;;
50555;SDS011;36508;52.512;13.450;2022-09-17T13:42:26;2.17;;;0.97;;
50555;SDS011;36508;52.512;13.450;2022-09-17T13:47:32;3.67;;;1.40;;
50555;SDS011;36508;52.512;13.450;2022-09-17T13:50:02;2.90;;;1.50;;
50555;SDS011;36508;52.512;13.450;2022-09-17T13:52:47;1.30;;;1.17;;
50555;SDS011;36508;52.512;13.450;2022-09-17T13:55:38;4.73;;;1.60;;
50555;SDS011;36508;52.512;13.450;2022-09-17T14:00:48;1.73;;;0.70;;
50555;SDS011;36508;52.512;13.450;2022-09-17T14:05:55;2.50;;;1.20;;
50555;SDS011;36508;52.512;13.450;2022-09-17T14:08:45;4.33;;;1.60;;
50555;SDS011;36508;52.512;13.450;2022-09-17T14:13:53;3.20;;;1.73;;
50555;SDS011;36508;52.512;13.450;2022-09-17T14:19:04;5.33;;;1.40;;
50555;SDS011;36508;52.512;13.450;2022-09-17T14:21:59;4.00;;;1.60;;
50555;SDS011;36508;52.512;13.450;2022-09-17T14:30:16;3.93;;;1.80;;
50555;SDS011;36508;52.512;13.450;2022-09-17T14:38:16;2.10;;;1.07;;
50555;SDS011;36508;52.512;13.450;2022-09-17T14:40:48;5.67;;;1.40;;
50555;SDS011;36508;52.512;13.450;2022-09-17T14:43:23;3.20;;;1.30;;
50555;SDS011;36508;52.512;13.450;2022-09-17T14:46:10;5.23;;;1.33;;
50555;SDS011;36508;52.512;13.450;2022-09-17T14:48:47;2.40;;;0.90;;
50555;SDS011;36508;52.512;13.450;2022-09-17T14:53:44;2.77;;;1.10;;
50555;SDS011;36508;52.512;13.450;2022-09-17T14:56:15;1.10;;;1.00;;
50555;SDS011;36508;52.512;13.450;2022-09-17T14:58:47;7.10;;;0.90;;
50555;SDS011;36508;52.512;13.450;2022-09-17T15:01:23;3.30;;;1.37;;
50555;SDS011;36508;52.512;13.450;2022-09-17T15:06:36;1.23;;;0.80;;
50555;SDS011;36508;52.512;13.450;2022-09-17T15:09:02;0.70;;;0.60;;
50555;SDS011;36508;52.512;13.450;2022-09-17T15:11:29;2.30;;;1.00;;
50555;SDS011;36508;52.512;13.450;2022-09-17T15:13:59;2.00;;;0.60;;
50555;SDS011;36508;52.512;13.450;2022-09-17T15:16:32;1.67;;;1.47;;
50555;SDS011;36508;52.512;13.450;2022-09-17T15:18:59;1.03;;;0.80;;
50555;SDS011;36508;52.512;13.450;2022-09-17T15:23:58;1.97;;;1.27;;
50555;SDS011;36508;52.512;13.450;2022-09-17T15:26:46;0.93;;;0.87;;
50555;SDS011;36508;52.512;13.450;2022-09-17T15:29:15;1.93;;;0.80;;
50555;SDS011;36508;52.512;13.450;2022-09-17T15:31:45;1.80;;;0.70;;
50555;SDS011;36508;52.512;13.450;2022-09-17T15:34:11;1.53;;;1.10;;
50555;SDS011;36508;52.512;13.450;2022-09-17T15:36:36;1.67;;;0.83;;
50555;SDS011;36508;52.512;13.450;2022-09-17T15:39:27;3.67;;;0.70;;
50555;SDS011;36508;52.512;13.450;2022-09-17T15:41:55;1.63;;;1.00;;
50555;SDS011;36508;52.512;13.450;2022-09-17T15:44:22;2.10;;;0.80;;
50555;SDS011;36508;52.512;13.450;2022-09-17T15:46:50;1.10;;;0.80;;
50555;SDS011;36508;52.512;13.450;2022-09-17T15:52:24;1.10;;;1.00;;
50555;SDS011;36508;52.512;13.450;2022-09-17T15:54:55;1.47;;;0.70;;
50555;SDS011;36508;52.512;13.450;2022-09-17T15:57:24;1.30;;;1.20;;
50555;SDS011;36508;52.512;13.450;2022-09-17T15:59:53;2.13;;;0.80;;
50555;SDS011;36508;52.512;13.450;2022-09-17T16:02:26;0.80;;;0.80;;
50555;SDS011;36508;52.512;13.450;2022-09-17T16:07:38;2.93;;;0.83;;
50555;SDS011;36508;52.512;13.450;2022-09-17T16:10:04;7.73;;;3.80;;
50555;SDS011;36508;52.512;13.450;2022-09-17T16:12:30;2.70;;;1.93;;
50555;SDS011;36508;52.512;13.450;2022-09-17T16:14:56;1.87;;;1.70;;
50555;SDS011;36508;52.512;13.450;2022-09-17T16:17:47;7.83;;;4.40;;
50555;SDS011;36508;52.512;13.450;2022-09-17T16:20:21;1.80;;;1.17;;
50555;SDS011;36508;52.512;13.450;2022-09-17T16:22:48;1.23;;;0.93;;
50555;SDS011;36508;52.512;13.450;2022-09-17T16:25:16;1.47;;;0.60;;
50555;SDS011;36508;52.512;13.450;2022-09-17T16:30:16;2.10;;;0.90;;
50555;SDS011;36508;52.512;13.450;2022-09-17T16:32:44;7.20;;;3.20;;
50555;SDS011;36508;52.512;13.450;2022-09-17T16:35:11;1.47;;;0.90;;
50555;SDS011;36508;52.512;13.450;2022-09-17T16:37:41;1.10;;;0.70;;
50555;SDS011;36508;52.512;13.450;2022-09-17T16:40:10;2.97;;;0.90;;
50555;SDS011;36508;52.512;13.450;2022-09-17T16:42:37;1.30;;;0.80;;
50555;SDS011;36508;52.512;13.450;2022-09-17T16:45:03;4.10;;;1.40;;
50555;SDS011;36508;52.512;13.450;2022-09-17T16:47:33;0.87;;;0.70;;
50555;SDS011;36508;52.512;13.450;2022-09-17T16:50:05;4.90;;;1.10;;
50555;SDS011;36508;52.512;13.450;2022-09-17T16:52:35;4.43;;;2.00;;
50555;SDS011;36508;52.512;13.450;2022-09-17T16:55:03;3.33;;;1.23;;
50555;SDS011;36508;52.512;13.450;2022-09-17T16:57:31;2.23;;;0.77;;
50555;SDS011;36508;52.512;13.450;2022-09-17T16:59:57;7.00;;;1.47;;
50555;SDS011;36508;52.512;13.450;2022-09-17T17:02:22;1.60;;;0.90;;
50555;SDS011;36508;52.512;13.450;2022-09-17T17:04:48;0.67;;;0.60;;
50555;SDS011;36508;52.512;13.450;2022-09-17T17:07:14;1.83;;;0.80;;
50555;SDS011;36508;52.512;13.450;2022-09-17T17:09:40;2.03;;;1.07;;
50555;SDS011;36508;52.512;13.450;2022-09-17T17:12:05;2.57;;;1.20;;
50555;SDS011;36508;52.512;13.450;2022-09-17T17:14:31;1.10;;;0.90;;
50555;SDS011;36508;52.512;13.450;2022-09-17T17:16:57;2.93;;;0.87;;
50555;SDS011;36508;52.512;13.450;2022-09-17T17:19:22;2.13;;;1.10;;
50555;SDS011;36508;52.512;13.450;2022-09-17T17:21:49;1.17;;;1.03;;
50555;SDS011;36508;52.512;13.450;2022-09-17T17:24:15;1.80;;;0.80;;
50555;SDS011;36508;52.512;13.450;2022-09-17T17:26:41;1.13;;;1.03;;
50555;SDS011;36508;52.512;13.450;2022-09-17T17:29:07;1.17;;;1.03;;
50555;SDS011;36508;52.512;13.450;2022-09-17T17:31:33;1.87;;;0.87;;
50555;SDS011;36508;52.512;13.450;2022-09-17T17:33:59;1.30;;;1.00;;
50555;SDS011;36508;52.512;13.450;2022-09-17T17:36:25;2.37;;;1.57;;
50555;SDS011;36508;52.512;13.450;2022-09-17T17:38:55;2.63;;;1.10;;
50555;SDS011;36508;52.512;13.450;2022-09-17T17:41:23;4.10;;;3.30;;
50555;SDS011;36508;52.512;13.450;2022-09-17T17:43:51;8.57;;;4.20;;
50555;SDS011;36508;52.512;13.450;2022-09-17T17:46:18;7.37;;;4.17;;
50555;SDS011;36508;52.512;13.450;2022-09-17T17:48:44;4.70;;;3.87;;
50555;SDS011;36508;52.512;13.450;2022-09-17T17:51:09;3.87;;;2.17;;
50555;SDS011;36508;52.512;13.450;2022-09-17T17:53:35;1.60;;;1.00;;
50555;SDS011;36508;52.512;13.450;2022-09-17T17:56:03;2.33;;;1.10;;
50555;SDS011;36508;52.512;13.450;2022-09-17T17:58:30;2.03;;;0.97;;
50555;SDS011;36508;52.512;13.450;2022-09-17T18:00:56;2.13;;;1.20;;